Terminal Aerodrome Forecast
Issued by NWS Charleston, WV

Current Version | Previous Version | Graphics & Text | Print | Product List | Glossary On
Versions: 1 2 3 4 5 6 7 8 9 10 11 12 13 14 15 16 17 18 19 20 21 22 23 24 25 26
000
FTUS41 KRLX 191138
TAFPKB
TAF
KPKB 191138Z 1912/2012 00000KT P6SM OVC015
     FM191800 16003KT P6SM SCT020
     FM192200 10003KT P6SM SCT150
     FM200800 11004KT 4SM -SHRA OVC035=

USA.gov is the U.S. government's official web portal to all federal, state and local government web resources and services.